createdAt,value
2018-07-31T00:00:04.561Z,7.80
2018-07-31T00:04:06.788Z,7.87
2018-07-31T00:08:08.975Z,7.47
2018-07-31T00:12:11.207Z,7.07
2018-07-31T00:16:13.553Z,8.40
2018-07-31T00:20:15.706Z,8.20
2018-07-31T00:24:17.923Z,8.20
2018-07-31T00:28:20.094Z,8.47
2018-07-31T00:32:22.244Z,8.30
2018-07-31T00:36:24.752Z,7.37
2018-07-31T00:40:26.949Z,7.63
2018-07-31T00:44:29.180Z,8.33
2018-07-31T00:48:31.354Z,8.50
2018-07-31T00:52:33.824Z,7.57
2018-07-31T00:56:36.021Z,8.03
2018-07-31T01:00:38.219Z,8.37
2018-07-31T01:04:40.431Z,8.17
2018-07-31T01:08:42.631Z,8.70
2018-07-31T01:12:44.795Z,8.13
2018-07-31T01:16:46.975Z,7.43
2018-07-31T01:20:50.478Z,8.80
2018-07-31T01:24:52.692Z,7.07
2018-07-31T01:28:54.853Z,7.93
2018-07-31T01:32:57.078Z,8.13
2018-07-31T01:36:59.274Z,8.80
2018-07-31T01:41:01.438Z,7.63
2018-07-31T01:45:03.843Z,7.17
2018-07-31T01:49:06.004Z,7.40
2018-07-31T01:53:08.165Z,7.00
2018-07-31T01:57:10.382Z,7.93
2018-07-31T02:01:12.796Z,7.23
2018-07-31T02:05:15.011Z,7.67
2018-07-31T02:09:17.179Z,7.87
2018-07-31T02:13:19.390Z,8.13
2018-07-31T02:17:21.738Z,7.47
2018-07-31T02:21:24.102Z,7.57
2018-07-31T02:25:26.324Z,7.47
2018-07-31T02:29:34.344Z,7.50
2018-07-31T02:33:36.555Z,8.30
2018-07-31T02:37:38.885Z,8.47
2018-07-31T02:41:41.091Z,7.67
2018-07-31T02:45:43.262Z,8.53
2018-07-31T02:49:45.601Z,7.87
2018-07-31T02:53:47.881Z,8.00
2018-07-31T02:57:50.050Z,7.83
2018-07-31T03:01:52.380Z,9.93
2018-07-31T03:05:54.647Z,8.63
2018-07-31T03:09:57.047Z,8.00
2018-07-31T03:13:59.418Z,10.90
2018-07-31T03:18:01.975Z,10.00
2018-07-31T03:22:04.126Z,9.70
2018-07-31T03:26:06.322Z,9.00
2018-07-31T03:30:08.618Z,9.67
2018-07-31T03:34:10.777Z,9.73
2018-07-31T03:38:12.914Z,8.07
2018-07-31T03:42:15.083Z,10.07
2018-07-31T03:46:17.288Z,9.37
2018-07-31T03:50:19.494Z,9.27
2018-07-31T03:54:21.745Z,10.33
2018-07-31T03:58:23.931Z,9.50
2018-07-31T04:02:26.545Z,10.47
2018-07-31T04:06:28.723Z,9.03
2018-07-31T04:10:31.261Z,9.30
2018-07-31T04:14:33.492Z,8.20
2018-07-31T04:18:35.639Z,9.13
2018-07-31T04:22:37.899Z,9.10
2018-07-31T04:26:40.076Z,8.87
2018-07-31T04:30:42.546Z,7.77
2018-07-31T04:34:44.797Z,7.40
2018-07-31T04:38:47.162Z,7.93
2018-07-31T04:42:49.312Z,9.50
2018-07-31T04:46:51.459Z,7.53
2018-07-31T04:50:53.646Z,7.60
2018-07-31T04:54:55.915Z,8.70
2018-07-31T04:58:58.638Z,9.17
2018-07-31T05:03:00.922Z,8.53
2018-07-31T05:07:03.103Z,8.83
2018-07-31T05:11:05.367Z,9.20
2018-07-31T05:15:07.508Z,9.20
2018-07-31T05:19:09.656Z,7.60
2018-07-31T05:23:11.786Z,7.80
2018-07-31T05:27:14.116Z,10.50
2018-07-31T05:31:16.587Z,9.60
2018-07-31T05:35:18.883Z,10.70
2018-07-31T05:39:21.073Z,9.47
2018-07-31T05:43:23.274Z,9.60
2018-07-31T05:47:25.455Z,8.97
2018-07-31T05:51:27.664Z,8.93
2018-07-31T05:55:29.853Z,9.40
2018-07-31T05:59:32.424Z,9.40
2018-07-31T06:03:34.819Z,10.17
2018-07-31T06:07:37.012Z,11.53
2018-07-31T06:11:39.436Z,7.97
2018-07-31T06:15:41.899Z,6.43
2018-07-31T06:19:44.286Z,7.23
2018-07-31T06:23:46.440Z,6.87
2018-07-31T06:27:49.814Z,7.00
2018-07-31T06:31:52.006Z,5.83
2018-07-31T06:35:54.492Z,6.13
2018-07-31T06:39:56.838Z,5.63
2018-07-31T06:43:59.027Z,6.90
2018-07-31T06:48:01.214Z,5.87
2018-07-31T06:52:03.581Z,5.70
2018-07-31T06:56:06.263Z,5.43
2018-07-31T07:00:08.980Z,4.70
2018-07-31T07:04:11.170Z,5.13
2018-07-31T07:08:13.334Z,4.60
2018-07-31T07:12:15.589Z,4.40
2018-07-31T07:16:17.793Z,4.73
2018-07-31T07:20:19.994Z,4.80
2018-07-31T07:24:22.202Z,5.23
2018-07-31T07:28:24.456Z,4.60
2018-07-31T07:32:26.642Z,4.07
2018-07-31T07:36:28.856Z,4.60
2018-07-31T07:40:31.129Z,4.00
2018-07-31T07:44:33.544Z,5.87
2018-07-31T07:48:35.953Z,4.43
2018-07-31T07:52:38.302Z,3.83
2018-07-31T07:56:40.514Z,3.90
2018-07-31T08:00:42.748Z,4.30
2018-07-31T08:04:45.108Z,4.37
2018-07-31T08:08:47.623Z,4.53
2018-07-31T08:12:50.049Z,4.77
2018-07-31T08:16:52.374Z,4.33
2018-07-31T08:20:54.587Z,4.73
2018-07-31T08:24:56.861Z,5.03
2018-07-31T08:28:59.087Z,3.67
2018-07-31T08:33:01.347Z,4.50
2018-07-31T08:37:03.559Z,4.53
2018-07-31T08:41:05.959Z,4.43
2018-07-31T08:45:08.158Z,4.30
2018-07-31T08:49:10.380Z,3.73
2018-07-31T08:53:12.562Z,4.40
2018-07-31T08:57:15.071Z,4.03
2018-07-31T09:01:17.310Z,4.60
2018-07-31T09:05:19.523Z,4.23
2018-07-31T09:09:21.769Z,4.37
2018-07-31T09:13:24.011Z,3.67
2018-07-31T09:17:27.416Z,4.00
2018-07-31T09:21:29.911Z,4.63
2018-07-31T09:25:37.881Z,4.80
2018-07-31T09:29:40.082Z,4.57
2018-07-31T09:33:42.981Z,4.33
2018-07-31T09:37:45.533Z,4.83
2018-07-31T09:41:47.851Z,4.40
2018-07-31T09:45:50.231Z,3.67
2018-07-31T09:49:52.471Z,4.10
2018-07-31T09:53:54.770Z,4.37
2018-07-31T09:57:57.060Z,3.87
2018-07-31T10:02:00.148Z,4.83
2018-07-31T10:06:02.474Z,4.87
2018-07-31T10:10:04.778Z,4.73
2018-07-31T10:14:07.063Z,4.60
2018-07-31T10:18:09.588Z,3.90
2018-07-31T10:22:12.988Z,5.30
2018-07-31T10:26:15.817Z,4.67
2018-07-31T10:30:18.361Z,4.33
2018-07-31T10:34:20.961Z,3.93
2018-07-31T10:38:23.263Z,4.17
2018-07-31T10:42:25.508Z,3.83
2018-07-31T10:46:27.935Z,4.97
2018-07-31T10:50:30.448Z,4.20
2018-07-31T10:54:33.953Z,4.97
2018-07-31T10:58:36.556Z,4.50
2018-07-31T11:02:39.568Z,4.43
2018-07-31T11:06:41.755Z,4.50
2018-07-31T11:10:44.140Z,4.20
2018-07-31T11:14:46.354Z,4.50
2018-07-31T11:18:48.754Z,4.50
2018-07-31T11:22:50.925Z,4.87
2018-07-31T11:26:53.194Z,4.23
2018-07-31T11:37:06.562Z,4.50
2018-07-31T11:41:08.769Z,5.03
2018-07-31T11:45:11.050Z,4.37
2018-07-31T11:49:13.268Z,5.23
2018-07-31T11:53:15.577Z,5.00
2018-07-31T11:57:18.584Z,5.07
2018-07-31T12:01:20.886Z,4.80
2018-07-31T12:05:23.123Z,5.00
2018-07-31T12:09:25.568Z,4.67
2018-07-31T12:13:27.722Z,4.33
2018-07-31T12:17:29.954Z,5.17
2018-07-31T12:21:32.148Z,5.33
2018-07-31T12:25:34.688Z,6.67
2018-07-31T12:29:36.910Z,5.23
2018-07-31T12:33:39.127Z,4.93
2018-07-31T12:37:41.399Z,4.87
2018-07-31T12:41:43.634Z,4.93
2018-07-31T12:45:45.806Z,4.67
2018-07-31T12:49:48.013Z,4.87
2018-07-31T12:53:50.235Z,4.70
2018-07-31T12:57:52.473Z,4.93
2018-07-31T13:01:54.691Z,4.37
2018-07-31T13:05:57.225Z,4.40
2018-07-31T13:09:59.430Z,5.00
2018-07-31T13:14:01.659Z,4.97
2018-07-31T13:18:03.894Z,4.27
2018-07-31T13:22:06.104Z,5.00
2018-07-31T13:26:08.317Z,4.57
2018-07-31T13:30:12.156Z,4.63
2018-07-31T13:34:14.566Z,4.57
2018-07-31T13:38:16.752Z,5.13
2018-07-31T13:42:19.132Z,5.20
2018-07-31T13:47:50.916Z,5.40
2018-07-31T13:51:53.132Z,5.17
2018-07-31T13:55:55.307Z,4.37
2018-07-31T13:59:57.502Z,4.30
2018-07-31T14:03:59.716Z,4.83
2018-07-31T14:08:01.966Z,4.10
2018-07-31T14:12:04.267Z,4.60
2018-07-31T14:16:06.501Z,4.08
2018-07-31T14:20:08.858Z,4.58
2018-07-31T14:24:11.054Z,3.73
2018-07-31T14:28:13.288Z,4.23
2018-07-31T14:32:15.726Z,6.23
2018-07-31T14:36:17.960Z,4.17
2018-07-31T14:40:20.208Z,3.95
2018-07-31T14:44:22.521Z,4.65
2018-07-31T14:48:24.759Z,4.67
2018-07-31T14:52:26.953Z,4.10
2018-07-31T14:56:29.283Z,4.47
2018-07-31T15:00:31.561Z,4.33
2018-07-31T15:04:33.747Z,4.90
2018-07-31T15:08:38.081Z,4.90
2018-07-31T15:12:40.299Z,3.62
2018-07-31T15:16:42.589Z,4.05
2018-07-31T15:20:48.702Z,5.55
2018-07-31T15:24:51.576Z,3.42
2018-07-31T15:28:54.527Z,3.83
2018-07-31T15:32:56.835Z,3.83
2018-07-31T15:36:59.107Z,3.33
2018-07-31T15:41:01.358Z,4.03
2018-07-31T15:45:03.792Z,4.03
2018-07-31T15:49:05.984Z,4.37
2018-07-31T15:53:09.301Z,5.20
2018-07-31T15:57:11.628Z,3.23
2018-07-31T16:01:13.847Z,3.57
2018-07-31T16:05:16.075Z,3.67
2018-07-31T16:09:18.234Z,3.10
2018-07-31T16:13:20.442Z,3.37
2018-07-31T16:17:22.625Z,2.90
2018-07-31T16:21:24.882Z,3.27
2018-07-31T16:25:27.371Z,4.10
2018-07-31T16:29:29.909Z,3.87
2018-07-31T16:33:32.103Z,2.50
2018-07-31T16:37:34.312Z,2.50
2018-07-31T16:41:36.513Z,3.13
2018-07-31T16:45:38.763Z,2.73
2018-07-31T16:49:42.111Z,3.77
2018-07-31T16:53:44.529Z,2.57
2018-07-31T16:57:46.780Z,2.40
2018-07-31T17:01:48.962Z,2.67
2018-07-31T17:05:51.204Z,2.17
2018-07-31T17:09:53.404Z,2.60
2018-07-31T17:13:55.710Z,2.73
2018-07-31T17:17:58.211Z,2.60
2018-07-31T17:22:00.459Z,2.13
2018-07-31T17:26:02.840Z,2.10
2018-07-31T17:30:05.089Z,2.50
2018-07-31T17:34:07.327Z,2.00
2018-07-31T17:38:09.599Z,1.97
2018-07-31T17:42:11.891Z,2.90
2018-07-31T17:46:14.083Z,5.17
2018-07-31T17:50:16.318Z,14.53
2018-07-31T17:54:18.502Z,2.10
2018-07-31T17:58:20.741Z,2.43
2018-07-31T18:02:22.969Z,2.17
2018-07-31T18:06:25.211Z,2.87
2018-07-31T18:10:27.422Z,2.77
2018-07-31T18:14:29.776Z,2.47
2018-07-31T18:18:31.851Z,3.00
2018-07-31T18:22:34.030Z,2.67
2018-07-31T18:26:36.590Z,2.50
2018-07-31T18:30:38.827Z,2.23
2018-07-31T18:34:41.397Z,2.63
2018-07-31T18:38:43.624Z,2.53
2018-07-31T18:42:45.872Z,2.90
2018-07-31T18:46:48.139Z,3.80
2018-07-31T18:50:50.343Z,2.97
2018-07-31T18:54:52.538Z,2.97
2018-07-31T18:58:54.687Z,3.40
2018-07-31T19:02:56.945Z,2.60
2018-07-31T19:06:59.163Z,3.50
2018-07-31T19:11:01.602Z,2.47
2018-07-31T19:15:03.977Z,2.87
2018-07-31T19:19:06.455Z,3.40
2018-07-31T19:23:08.734Z,3.27
2018-07-31T19:27:11.221Z,2.60
2018-07-31T19:31:13.532Z,2.60
2018-07-31T19:35:16.178Z,3.33
2018-07-31T19:39:18.417Z,3.10
2018-07-31T19:43:20.795Z,3.17
2018-07-31T19:47:22.994Z,3.70
2018-07-31T19:51:25.237Z,3.23
2018-07-31T19:55:27.785Z,3.87
2018-07-31T19:59:30.078Z,2.60
2018-07-31T20:03:32.343Z,2.70
2018-07-31T20:07:34.580Z,2.90
2018-07-31T20:11:36.854Z,3.60
2018-07-31T20:15:39.579Z,3.33
2018-07-31T20:19:41.689Z,2.73
2018-07-31T20:23:44.621Z,3.43
2018-07-31T20:27:47.144Z,3.00
2018-07-31T20:31:49.407Z,2.80
2018-07-31T20:35:51.788Z,2.33
2018-07-31T20:39:54.034Z,3.10
2018-07-31T20:43:56.346Z,3.20
2018-07-31T20:47:58.587Z,3.13
2018-07-31T20:52:00.827Z,3.13
2018-07-31T20:56:03.130Z,3.30
2018-07-31T21:00:05.539Z,3.77
2018-07-31T21:04:08.065Z,2.77
2018-07-31T21:16:29.584Z,3.23
2018-07-31T21:20:31.841Z,3.23
2018-07-31T21:24:34.074Z,2.87
2018-07-31T21:28:36.818Z,2.80
2018-07-31T21:32:39.003Z,3.27
2018-07-31T21:36:41.490Z,2.90
2018-07-31T21:40:44.089Z,2.80
2018-07-31T21:44:46.463Z,3.50
2018-07-31T21:48:48.830Z,3.27
2018-07-31T21:52:51.225Z,2.60
2018-07-31T21:56:53.459Z,4.10
2018-07-31T22:01:01.716Z,3.47
2018-07-31T22:05:04.007Z,2.70
2018-07-31T22:09:07.389Z,2.53
2018-07-31T22:13:09.636Z,3.73
2018-07-31T22:17:12.652Z,3.83
2018-07-31T22:21:14.801Z,2.87
2018-07-31T22:25:17.111Z,2.70
2018-07-31T22:29:19.307Z,2.63
2018-07-31T22:33:21.535Z,3.30
2018-07-31T22:37:23.806Z,2.43
2018-07-31T22:41:26.014Z,3.10
2018-07-31T22:45:28.227Z,3.20
2018-07-31T22:49:30.411Z,2.67
2018-07-31T22:53:32.609Z,2.60
2018-07-31T22:57:34.840Z,2.97
2018-07-31T23:01:37.120Z,2.87
2018-07-31T23:05:39.378Z,2.90
2018-07-31T23:09:45.811Z,2.60
2018-07-31T23:13:48.038Z,2.20
2018-07-31T23:17:50.243Z,2.33
2018-07-31T23:21:52.476Z,2.70
2018-07-31T23:25:54.698Z,2.63
2018-07-31T23:29:59.163Z,2.27
2018-07-31T23:34:01.355Z,2.40
2018-07-31T23:38:03.584Z,2.77
2018-07-31T23:42:05.844Z,2.40
2018-07-31T23:46:08.193Z,2.60
2018-07-31T23:50:10.424Z,2.57
2018-07-31T23:54:12.681Z,2.67
2018-07-31T23:58:14.876Z,2.53
